sensor_id;sensor_type;location;lat;lon;timestamp;pressure;altitude;pressure_sealevel;temperature;humidity
63927;BME280;50103;47.960;21.712;2023-02-10T06:01:13;102653.20;;;-5.12;85.36
63927;BME280;50103;47.960;21.712;2023-02-10T06:03:38;102650.80;;;-5.11;85.64
63927;BME280;50103;47.960;21.712;2023-02-10T06:06:05;102650.30;;;-5.10;85.73
63927;BME280;50103;47.960;21.712;2023-02-10T06:08:31;102649.29;;;-5.09;85.75
63927;BME280;50103;47.960;21.712;2023-02-10T06:10:56;102650.34;;;-5.09;85.76
63927;BME280;50103;47.960;21.712;2023-02-10T06:13:23;102648.98;;;-5.08;85.83
63927;BME280;50103;47.960;21.712;2023-02-10T06:15:55;102650.69;;;-5.09;85.92
63927;BME280;50103;47.960;21.712;2023-02-10T06:18:21;102647.77;;;-5.08;85.98
63927;BME280;50103;47.960;21.712;2023-02-10T06:20:48;102642.59;;;-5.08;85.93
63927;BME280;50103;47.960;21.712;2023-02-10T06:23:17;102634.48;;;-5.08;86.03
63927;BME280;50103;47.960;21.712;2023-02-10T06:25:43;102634.00;;;-5.07;86.16
63927;BME280;50103;47.960;21.712;2023-02-10T06:28:09;102633.64;;;-5.07;86.30
63927;BME280;50103;47.960;21.712;2023-02-10T06:30:34;102634.66;;;-5.08;86.30
63927;BME280;50103;47.960;21.712;2023-02-10T06:33:01;102637.42;;;-5.08;86.27
63927;BME280;50103;47.960;21.712;2023-02-10T06:35:26;102643.95;;;-5.09;86.49
63927;BME280;50103;47.960;21.712;2023-02-10T06:37:52;102645.73;;;-5.13;86.51
63927;BME280;50103;47.960;21.712;2023-02-10T06:40:19;102642.70;;;-5.17;86.59
63927;BME280;50103;47.960;21.712;2023-02-10T06:42:44;102650.05;;;-5.20;86.63
63927;BME280;50103;47.960;21.712;2023-02-10T06:45:10;102655.12;;;-5.25;86.66
63927;BME280;50103;47.960;21.712;2023-02-10T06:47:36;102660.40;;;-5.27;86.73
63927;BME280;50103;47.960;21.712;2023-02-10T06:50:02;102658.81;;;-5.29;86.70
63927;BME280;50103;47.960;21.712;2023-02-10T06:52:28;102660.91;;;-5.28;86.74
63927;BME280;50103;47.960;21.712;2023-02-10T06:54:54;102660.20;;;-5.28;86.99
63927;BME280;50103;47.960;21.712;2023-02-10T06:57:20;102657.95;;;-5.28;87.27
63927;BME280;50103;47.960;21.712;2023-02-10T06:59:49;102666.08;;;-5.28;87.29
63927;BME280;50103;47.960;21.712;2023-02-10T07:02:14;102667.30;;;-5.28;87.44
63927;BME280;50103;47.960;21.712;2023-02-10T07:04:40;102661.80;;;-5.27;87.52
63927;BME280;50103;47.960;21.712;2023-02-10T07:07:05;102669.27;;;-5.25;87.57
63927;BME280;50103;47.960;21.712;2023-02-10T07:09:31;102667.42;;;-5.23;87.69
63927;BME280;50103;47.960;21.712;2023-02-10T07:11:57;102662.65;;;-5.21;87.79
63927;BME280;50103;47.960;21.712;2023-02-10T07:14:24;102664.41;;;-5.18;88.05
63927;BME280;50103;47.960;21.712;2023-02-10T07:16:49;102671.05;;;-5.16;87.97
63927;BME280;50103;47.960;21.712;2023-02-10T07:19:15;102666.62;;;-5.13;87.92
63927;BME280;50103;47.960;21.712;2023-02-10T07:21:41;102665.67;;;-5.11;88.06
63927;BME280;50103;47.960;21.712;2023-02-10T07:24:07;102664.20;;;-5.07;88.09
63927;BME280;50103;47.960;21.712;2023-02-10T07:26:33;102663.95;;;-5.04;88.23
63927;BME280;50103;47.960;21.712;2023-02-10T07:28:59;102664.45;;;-5.04;88.09
63927;BME280;50103;47.960;21.712;2023-02-10T07:31:27;102661.36;;;-5.04;88.06
63927;BME280;50103;47.960;21.712;2023-02-10T07:33:53;102655.14;;;-5.03;88.35
63927;BME280;50103;47.960;21.712;2023-02-10T07:36:18;102646.88;;;-5.02;88.30
63927;BME280;50103;47.960;21.712;2023-02-10T07:38:45;102645.59;;;-4.98;88.51
63927;BME280;50103;47.960;21.712;2023-02-10T07:41:11;102644.32;;;-4.94;88.81
63927;BME280;50103;47.960;21.712;2023-02-10T07:43:36;102643.71;;;-4.90;88.81
63927;BME280;50103;47.960;21.712;2023-02-10T07:46:02;102636.70;;;-4.87;89.04
63927;BME280;50103;47.960;21.712;2023-02-10T07:48:27;102631.09;;;-4.82;89.22
63927;BME280;50103;47.960;21.712;2023-02-10T07:50:55;102626.40;;;-4.77;89.27
63927;BME280;50103;47.960;21.712;2023-02-10T07:53:21;102625.13;;;-4.73;89.64
63927;BME280;50103;47.960;21.712;2023-02-10T07:55:48;102627.14;;;-4.66;89.57
63927;BME280;50103;47.960;21.712;2023-02-10T07:58:13;102631.95;;;-4.61;89.81
63927;BME280;50103;47.960;21.712;2023-02-10T08:00:41;102633.11;;;-4.55;89.80
63927;BME280;50103;47.960;21.712;2023-02-10T08:03:12;102639.14;;;-4.48;89.85
63927;BME280;50103;47.960;21.712;2023-02-10T08:05:39;102639.30;;;-4.41;90.23
63927;BME280;50103;47.960;21.712;2023-02-10T08:08:10;102636.68;;;-4.34;90.39
63927;BME280;50103;47.960;21.712;2023-02-10T08:10:37;102632.69;;;-4.27;90.14
63927;BME280;50103;47.960;21.712;2023-02-10T08:13:03;102634.41;;;-4.18;90.15
63927;BME280;50103;47.960;21.712;2023-02-10T08:15:32;102634.73;;;-4.11;90.12
63927;BME280;50103;47.960;21.712;2023-02-10T08:18:01;102628.84;;;-4.03;90.14
63927;BME280;50103;47.960;21.712;2023-02-10T08:20:29;102632.46;;;-3.96;90.17
63927;BME280;50103;47.960;21.712;2023-02-10T08:22:56;102632.75;;;-3.89;90.12
63927;BME280;50103;47.960;21.712;2023-02-10T08:25:22;102634.27;;;-3.82;90.08
63927;BME280;50103;47.960;21.712;2023-02-10T08:27:47;102635.61;;;-3.76;89.98
63927;BME280;50103;47.960;21.712;2023-02-10T08:30:13;102629.09;;;-3.72;89.96
63927;BME280;50103;47.960;21.712;2023-02-10T08:32:41;102632.88;;;-3.65;89.73
63927;BME280;50103;47.960;21.712;2023-02-10T08:35:06;102640.98;;;-3.58;89.90
63927;BME280;50103;47.960;21.712;2023-02-10T08:37:35;102642.45;;;-3.52;90.00
63927;BME280;50103;47.960;21.712;2023-02-10T08:40:01;102645.19;;;-3.45;89.74
63927;BME280;50103;47.960;21.712;2023-02-10T08:42:29;102641.98;;;-3.40;89.86
63927;BME280;50103;47.960;21.712;2023-02-10T08:44:55;102638.49;;;-3.32;89.79
63927;BME280;50103;47.960;21.712;2023-02-10T08:47:20;102637.27;;;-3.22;89.89
63927;BME280;50103;47.960;21.712;2023-02-10T08:49:46;102636.05;;;-3.12;89.90
63927;BME280;50103;47.960;21.712;2023-02-10T08:52:11;102635.52;;;-3.02;89.87
63927;BME280;50103;47.960;21.712;2023-02-10T08:54:37;102631.86;;;-2.93;89.60
63927;BME280;50103;47.960;21.712;2023-02-10T08:57:03;102636.52;;;-2.83;89.32
63927;BME280;50103;47.960;21.712;2023-02-10T08:59:29;102640.11;;;-2.75;89.35
63927;BME280;50103;47.960;21.712;2023-02-10T09:01:56;102643.01;;;-2.67;89.17
63927;BME280;50103;47.960;21.712;2023-02-10T09:04:21;102644.84;;;-2.59;88.92
63927;BME280;50103;47.960;21.712;2023-02-10T09:06:47;102639.39;;;-2.52;88.80
63927;BME280;50103;47.960;21.712;2023-02-10T09:09:16;102642.63;;;-2.45;88.84
63927;BME280;50103;47.960;21.712;2023-02-10T09:11:45;102646.20;;;-2.37;88.68
63927;BME280;50103;47.960;21.712;2023-02-10T09:14:12;102651.18;;;-2.28;88.48
63927;BME280;50103;47.960;21.712;2023-02-10T09:16:47;102652.85;;;-2.20;88.33
63927;BME280;50103;47.960;21.712;2023-02-10T09:19:13;102655.73;;;-2.12;88.27
63927;BME280;50103;47.960;21.712;2023-02-10T09:21:38;102663.48;;;-2.03;87.52
63927;BME280;50103;47.960;21.712;2023-02-10T09:24:04;102664.28;;;-1.94;86.80
63927;BME280;50103;47.960;21.712;2023-02-10T09:26:30;102668.90;;;-1.85;86.56
63927;BME280;50103;47.960;21.712;2023-02-10T09:28:56;102667.77;;;-1.78;86.23
63927;BME280;50103;47.960;21.712;2023-02-10T09:31:23;102669.95;;;-1.70;86.01
63927;BME280;50103;47.960;21.712;2023-02-10T09:33:49;102673.14;;;-1.63;85.94
63927;BME280;50103;47.960;21.712;2023-02-10T09:36:19;102673.21;;;-1.57;85.64
63927;BME280;50103;47.960;21.712;2023-02-10T09:38:45;102674.71;;;-1.48;85.33
63927;BME280;50103;47.960;21.712;2023-02-10T09:41:41;102674.80;;;-1.38;84.74
63927;BME280;50103;47.960;21.712;2023-02-10T09:44:16;102674.54;;;-1.30;83.14
63927;BME280;50103;47.960;21.712;2023-02-10T09:55:33;102661.27;;;-0.97;82.00
63927;BME280;50103;47.960;21.712;2023-02-10T10:01:15;102646.46;;;-0.78;81.09
63927;BME280;50103;47.960;21.712;2023-02-10T10:03:53;102640.11;;;-0.68;81.13
63927;BME280;50103;47.960;21.712;2023-02-10T10:06:40;102634.42;;;-0.58;81.18
63927;BME280;50103;47.960;21.712;2023-02-10T10:12:03;102637.64;;;-0.42;78.86
63927;BME280;50103;47.960;21.712;2023-02-10T10:14:34;102640.84;;;-0.35;78.46
63927;BME280;50103;47.960;21.712;2023-02-10T10:20:24;102629.08;;;-0.19;77.94
63927;BME280;50103;47.960;21.712;2023-02-10T10:26:36;102627.35;;;-0.11;76.51
63927;BME280;50103;47.960;21.712;2023-02-10T10:29:26;102629.46;;;-0.08;75.98
63927;BME280;50103;47.960;21.712;2023-02-10T10:32:13;102628.97;;;0.02;76.78
63927;BME280;50103;47.960;21.712;2023-02-10T10:34:42;102630.06;;;0.12;76.58
63927;BME280;50103;47.960;21.712;2023-02-10T10:37:24;102630.41;;;0.20;75.12
63927;BME280;50103;47.960;21.712;2023-02-10T10:39:57;102629.77;;;0.32;75.15
63927;BME280;50103;47.960;21.712;2023-02-10T10:42:52;102621.80;;;0.70;73.85
63927;BME280;50103;47.960;21.712;2023-02-10T10:45:38;102615.67;;;1.25;72.47
63927;BME280;50103;47.960;21.712;2023-02-10T10:48:08;102612.59;;;1.71;73.77
63927;BME280;50103;47.960;21.712;2023-02-10T10:50:35;102608.08;;;2.05;71.76
63927;BME280;50103;47.960;21.712;2023-02-10T10:53:05;102601.61;;;2.34;70.54
63927;BME280;50103;47.960;21.712;2023-02-10T10:55:41;102597.79;;;2.58;67.86
63927;BME280;50103;47.960;21.712;2023-02-10T11:00:50;102588.80;;;2.67;62.55
63927;BME280;50103;47.960;21.712;2023-02-10T11:03:16;102585.67;;;2.62;62.31
63927;BME280;50103;47.960;21.712;2023-02-10T11:05:43;102585.52;;;2.60;61.15
63927;BME280;50103;47.960;21.712;2023-02-10T11:08:23;102580.30;;;2.58;62.12
63927;BME280;50103;47.960;21.712;2023-02-10T11:10:54;102579.71;;;2.65;61.11
63927;BME280;50103;47.960;21.712;2023-02-10T11:13:26;102578.63;;;2.71;61.16
63927;BME280;50103;47.960;21.712;2023-02-10T11:16:06;102580.34;;;2.74;59.79
63927;BME280;50103;47.960;21.712;2023-02-10T11:18:33;102574.11;;;2.67;60.58
63927;BME280;50103;47.960;21.712;2023-02-10T11:21:02;102572.81;;;2.54;60.96
63927;BME280;50103;47.960;21.712;2023-02-10T11:23:29;102571.27;;;2.46;61.44
63927;BME280;50103;47.960;21.712;2023-02-10T11:26:02;102570.92;;;2.48;61.35
63927;BME280;50103;47.960;21.712;2023-02-10T11:28:30;102564.78;;;2.52;62.08
63927;BME280;50103;47.960;21.712;2023-02-10T11:31:02;102566.37;;;2.50;62.81
63927;BME280;50103;47.960;21.712;2023-02-10T11:33:31;102569.73;;;2.45;63.29
63927;BME280;50103;47.960;21.712;2023-02-10T11:36:03;102562.52;;;2.49;63.29
63927;BME280;50103;47.960;21.712;2023-02-10T11:38:30;102557.86;;;2.65;63.97
63927;BME280;50103;47.960;21.712;2023-02-10T11:40:59;102551.54;;;2.87;64.32
63927;BME280;50103;47.960;21.712;2023-02-10T11:43:44;102547.25;;;3.13;63.26
63927;BME280;50103;47.960;21.712;2023-02-10T11:46:25;102540.35;;;3.36;63.67
63927;BME280;50103;47.960;21.712;2023-02-10T11:48:53;102536.77;;;3.57;63.36
63927;BME280;50103;47.960;21.712;2023-02-10T11:51:23;102535.14;;;3.61;62.96
63927;BME280;50103;47.960;21.712;2023-02-10T11:53:53;102532.85;;;3.62;61.61
63927;BME280;50103;47.960;21.712;2023-02-10T11:56:38;102523.75;;;3.75;61.15
63927;BME280;50103;47.960;21.712;2023-02-10T12:01:58;102523.23;;;4.23;59.78
63927;BME280;50103;47.960;21.712;2023-02-10T12:04:44;102520.02;;;4.38;58.37
63927;BME280;50103;47.960;21.712;2023-02-10T12:10:15;102524.64;;;4.76;55.66
63927;BME280;50103;47.960;21.712;2023-02-10T12:13:11;102524.79;;;4.87;57.21
63927;BME280;50103;47.960;21.712;2023-02-10T12:16:23;102524.57;;;4.80;55.61
63927;BME280;50103;47.960;21.712;2023-02-10T12:21:54;102511.42;;;4.98;55.22
63927;BME280;50103;47.960;21.712;2023-02-10T12:33:42;102489.35;;;5.89;52.51
63927;BME280;50103;47.960;21.712;2023-02-10T12:47:07;102485.06;;;6.58;49.03
63927;BME280;50103;47.960;21.712;2023-02-10T12:52:33;102491.30;;;6.88;50.31
63927;BME280;50103;47.960;21.712;2023-02-10T12:55:15;102495.02;;;7.14;49.42
63927;BME280;50103;47.960;21.712;2023-02-10T12:57:57;102492.85;;;7.22;47.92
63927;BME280;50103;47.960;21.712;2023-02-10T13:00:33;102481.10;;;7.38;48.71
63927;BME280;50103;47.960;21.712;2023-02-10T13:03:20;102479.54;;;7.49;48.41
63927;BME280;50103;47.960;21.712;2023-02-10T13:05:55;102482.38;;;7.55;47.61
63927;BME280;50103;47.960;21.712;2023-02-10T13:08:32;102480.67;;;7.53;47.22
63927;BME280;50103;47.960;21.712;2023-02-10T13:11:10;102477.98;;;7.54;46.69
63927;BME280;50103;47.960;21.712;2023-02-10T13:13:40;102480.23;;;7.56;47.37
63927;BME280;50103;47.960;21.712;2023-02-10T13:16:15;102478.75;;;7.69;47.37
63927;BME280;50103;47.960;21.712;2023-02-10T13:19:18;102478.58;;;7.81;46.30
63927;BME280;50103;47.960;21.712;2023-02-10T13:22:23;102480.19;;;7.80;46.67
63927;BME280;50103;47.960;21.712;2023-02-10T13:27:57;102471.26;;;7.95;46.15
63927;BME280;50103;47.960;21.712;2023-02-10T13:35:27;102485.60;;;8.10;45.14
63927;BME280;50103;47.960;21.712;2023-02-10T13:38:06;102489.28;;;8.22;44.25
63927;BME280;50103;47.960;21.712;2023-02-10T13:40:45;102492.80;;;8.33;44.13
63927;BME280;50103;47.960;21.712;2023-02-10T13:43:37;102484.16;;;8.50;44.25
63927;BME280;50103;47.960;21.712;2023-02-10T13:46:03;102477.33;;;8.58;43.86
63927;BME280;50103;47.960;21.712;2023-02-10T13:48:34;102479.29;;;8.63;43.67
63927;BME280;50103;47.960;21.712;2023-02-10T13:51:04;102483.55;;;8.67;43.58
63927;BME280;50103;47.960;21.712;2023-02-10T13:53:40;102478.88;;;8.69;43.35
63927;BME280;50103;47.960;21.712;2023-02-10T13:59:04;102490.86;;;8.60;44.14
63927;BME280;50103;47.960;21.712;2023-02-10T14:01:41;102492.41;;;8.46;44.07
63927;BME280;50103;47.960;21.712;2023-02-10T14:06:46;102495.77;;;7.89;43.79
63927;BME280;50103;47.960;21.712;2023-02-10T14:11:57;102490.58;;;7.46;44.41
63927;BME280;50103;47.960;21.712;2023-02-10T14:17:25;102483.58;;;7.13;44.38
63927;BME280;50103;47.960;21.712;2023-02-10T14:20:15;102485.95;;;6.85;44.69
63927;BME280;50103;47.960;21.712;2023-02-10T14:22:43;102489.40;;;6.67;44.81
63927;BME280;50103;47.960;21.712;2023-02-10T14:25:27;102493.99;;;6.53;44.92
63927;BME280;50103;47.960;21.712;2023-02-10T14:27:54;102493.83;;;6.32;45.13
63927;BME280;50103;47.960;21.712;2023-02-10T14:30:38;102494.70;;;6.24;45.62
63927;BME280;50103;47.960;21.712;2023-02-10T14:33:06;102495.08;;;6.16;45.53
63927;BME280;50103;47.960;21.712;2023-02-10T14:35:48;102490.59;;;6.05;45.56
63927;BME280;50103;47.960;21.712;2023-02-10T14:38:35;102486.96;;;5.94;45.64
63927;BME280;50103;47.960;21.712;2023-02-10T14:41:02;102486.58;;;5.79;45.71
63927;BME280;50103;47.960;21.712;2023-02-10T14:43:34;102486.85;;;5.67;45.99
63927;BME280;50103;47.960;21.712;2023-02-10T14:46:02;102488.73;;;5.53;46.24
63927;BME280;50103;47.960;21.712;2023-02-10T14:48:29;102498.03;;;5.45;46.37
63927;BME280;50103;47.960;21.712;2023-02-10T14:51:20;102510.67;;;5.37;46.64
63927;BME280;50103;47.960;21.712;2023-02-10T14:53:46;102507.80;;;5.23;46.46
63927;BME280;50103;47.960;21.712;2023-02-10T14:56:26;102501.18;;;5.11;46.78
63927;BME280;50103;47.960;21.712;2023-02-10T14:58:53;102496.05;;;5.04;46.99
63927;BME280;50103;47.960;21.712;2023-02-10T15:01:25;102494.44;;;4.97;47.24
63927;BME280;50103;47.960;21.712;2023-02-10T15:03:52;102488.45;;;4.88;47.45
63927;BME280;50103;47.960;21.712;2023-02-10T15:06:23;102482.95;;;4.81;47.55
63927;BME280;50103;47.960;21.712;2023-02-10T15:09:17;102483.60;;;4.74;47.60
63927;BME280;50103;47.960;21.712;2023-02-10T15:11:49;102479.77;;;4.64;47.74
63927;BME280;50103;47.960;21.712;2023-02-10T15:15:02;102480.14;;;4.53;47.92
63927;BME280;50103;47.960;21.712;2023-02-10T15:20:52;102469.91;;;4.45;48.59
63927;BME280;50103;47.960;21.712;2023-02-10T15:25:34;102481.75;;;4.30;48.81
63927;BME280;50103;47.960;21.712;2023-02-10T15:28:24;102482.85;;;4.26;49.02
63927;BME280;50103;47.960;21.712;2023-02-10T15:31:06;102483.20;;;4.16;49.06
63927;BME280;50103;47.960;21.712;2023-02-10T15:36:24;102477.85;;;3.98;49.87
63927;BME280;50103;47.960;21.712;2023-02-10T15:46:51;102494.73;;;3.83;50.67
63927;BME280;50103;47.960;21.712;2023-02-10T15:49:21;102495.13;;;3.80;51.08
63927;BME280;50103;47.960;21.712;2023-02-10T15:51:54;102496.92;;;3.76;50.94
63927;BME280;50103;47.960;21.712;2023-02-10T15:54:25;102494.39;;;3.70;51.10
63927;BME280;50103;47.960;21.712;2023-02-10T15:57:01;102493.93;;;3.65;51.61
63927;BME280;50103;47.960;21.712;2023-02-10T15:59:28;102494.54;;;3.59;51.73
63927;BME280;50103;47.960;21.712;2023-02-10T16:01:58;102503.56;;;3.52;52.09
63927;BME280;50103;47.960;21.712;2023-02-10T16:04:24;102512.03;;;3.46;52.22
63927;BME280;50103;47.960;21.712;2023-02-10T16:06:53;102511.40;;;3.41;52.19
63927;BME280;50103;47.960;21.712;2023-02-10T16:09:19;102509.55;;;3.35;52.40
63927;BME280;50103;47.960;21.712;2023-02-10T16:11:45;102514.69;;;3.29;52.59
63927;BME280;50103;47.960;21.712;2023-02-10T16:14:11;102515.11;;;3.23;52.89
63927;BME280;50103;47.960;21.712;2023-02-10T16:16:42;102523.40;;;3.18;53.27
63927;BME280;50103;47.960;21.712;2023-02-10T16:19:13;102531.13;;;3.14;53.27
63927;BME280;50103;47.960;21.712;2023-02-10T16:21:40;102531.16;;;3.11;53.52
63927;BME280;50103;47.960;21.712;2023-02-10T16:24:18;102532.96;;;3.07;54.03
63927;BME280;50103;47.960;21.712;2023-02-10T16:26:46;102536.52;;;3.03;54.17
63927;BME280;50103;47.960;21.712;2023-02-10T16:29:21;102538.29;;;3.00;54.32
63927;BME280;50103;47.960;21.712;2023-02-10T16:31:49;102537.27;;;2.98;54.71
63927;BME280;50103;47.960;21.712;2023-02-10T16:34:15;102532.56;;;2.94;54.53
63927;BME280;50103;47.960;21.712;2023-02-10T16:36:42;102534.55;;;2.90;54.79
63927;BME280;50103;47.960;21.712;2023-02-10T16:39:18;102544.02;;;2.87;55.11
63927;BME280;50103;47.960;21.712;2023-02-10T16:41:48;102551.39;;;2.85;55.39
63927;BME280;50103;47.960;21.712;2023-02-10T16:44:17;102549.48;;;2.81;55.77
63927;BME280;50103;47.960;21.712;2023-02-10T16:46:46;102554.23;;;2.78;55.50
63927;BME280;50103;47.960;21.712;2023-02-10T16:49:17;102551.15;;;2.74;55.82
63927;BME280;50103;47.960;21.712;2023-02-10T16:51:43;102549.26;;;2.68;55.86
63927;BME280;50103;47.960;21.712;2023-02-10T16:54:09;102549.49;;;2.60;56.36
63927;BME280;50103;47.960;21.712;2023-02-10T16:56:37;102553.58;;;2.54;56.12
63927;BME280;50103;47.960;21.712;2023-02-10T16:59:03;102549.94;;;2.49;56.54
63927;BME280;50103;47.960;21.712;2023-02-10T17:01:29;102548.95;;;2.43;56.85
63927;BME280;50103;47.960;21.712;2023-02-10T17:03:57;102545.48;;;2.38;57.00
63927;BME280;50103;47.960;21.712;2023-02-10T17:06:23;102551.63;;;2.32;57.70
63927;BME280;50103;47.960;21.712;2023-02-10T17:08:49;102548.17;;;2.27;57.77
63927;BME280;50103;47.960;21.712;2023-02-10T17:11:15;102542.63;;;2.23;58.19
63927;BME280;50103;47.960;21.712;2023-02-10T17:13:41;102543.88;;;2.18;58.46
63927;BME280;50103;47.960;21.712;2023-02-10T17:16:24;102542.84;;;2.13;58.74
63927;BME280;50103;47.960;21.712;2023-02-10T17:18:58;102542.20;;;2.06;59.17
63927;BME280;50103;47.960;21.712;2023-02-10T17:21:24;102543.45;;;1.99;59.63
63927;BME280;50103;47.960;21.712;2023-02-10T17:23:51;102538.80;;;1.90;59.74
63927;BME280;50103;47.960;21.712;2023-02-10T17:26:17;102536.20;;;1.85;60.20
63927;BME280;50103;47.960;21.712;2023-02-10T17:28:43;102530.83;;;1.78;60.20
63927;BME280;50103;47.960;21.712;2023-02-10T17:31:17;102533.13;;;1.72;60.24
63927;BME280;50103;47.960;21.712;2023-02-10T17:33:44;102536.63;;;1.68;60.55
63927;BME280;50103;47.960;21.712;2023-02-10T17:36:21;102544.16;;;1.64;60.99
63927;BME280;50103;47.960;21.712;2023-02-10T17:38:54;102549.95;;;1.60;60.60
63927;BME280;50103;47.960;21.712;2023-02-10T17:41:27;102551.89;;;1.56;61.25
63927;BME280;50103;47.960;21.712;2023-02-10T17:43:56;102552.92;;;1.53;61.20
63927;BME280;50103;47.960;21.712;2023-02-10T17:46:22;102553.46;;;1.49;61.48
63927;BME280;50103;47.960;21.712;2023-02-10T17:48:48;102558.02;;;1.48;61.53
63927;BME280;50103;47.960;21.712;2023-02-10T17:51:19;102558.73;;;1.46;61.44
63927;BME280;50103;47.960;21.712;2023-02-10T17:53:47;102559.96;;;1.44;61.54
63927;BME280;50103;47.960;21.712;2023-02-10T17:56:14;102562.23;;;1.42;61.78
63927;BME280;50103;47.960;21.712;2023-02-10T17:58:40;102564.16;;;1.39;61.74
63927;BME280;50103;47.960;21.712;2023-02-10T18:01:06;102561.89;;;1.36;61.51
63927;BME280;50103;47.960;21.712;2023-02-10T18:03:32;102562.95;;;1.32;61.92
63927;BME280;50103;47.960;21.712;2023-02-10T18:05:58;102566.48;;;1.27;61.76
63927;BME280;50103;47.960;21.712;2023-02-10T18:08:26;102566.64;;;1.22;61.92
63927;BME280;50103;47.960;21.712;2023-02-10T18:10:52;102572.05;;;1.17;62.14
63927;BME280;50103;47.960;21.712;2023-02-10T18:13:18;102569.29;;;1.10;62.44
63927;BME280;50103;47.960;21.712;2023-02-10T18:15:45;102569.46;;;1.04;62.56
63927;BME280;50103;47.960;21.712;2023-02-10T18:18:11;102572.96;;;0.98;62.97
63927;BME280;50103;47.960;21.712;2023-02-10T18:20:41;102570.89;;;0.92;63.63
63927;BME280;50103;47.960;21.712;2023-02-10T18:23:07;102564.95;;;0.83;63.86
63927;BME280;50103;47.960;21.712;2023-02-10T18:25:33;102567.42;;;0.77;64.30
63927;BME280;50103;47.960;21.712;2023-02-10T18:27:58;102566.19;;;0.71;64.88
63927;BME280;50103;47.960;21.712;2023-02-10T18:30:24;102565.31;;;0.64;65.39
63927;BME280;50103;47.960;21.712;2023-02-10T18:32:50;102566.54;;;0.59;65.92
63927;BME280;50103;47.960;21.712;2023-02-10T18:35:16;102570.70;;;0.53;66.42
63927;BME280;50103;47.960;21.712;2023-02-10T18:37:41;102573.67;;;0.48;66.92
63927;BME280;50103;47.960;21.712;2023-02-10T18:40:10;102576.64;;;0.44;67.09
63927;BME280;50103;47.960;21.712;2023-02-10T18:42:36;102571.40;;;0.41;67.63
63927;BME280;50103;47.960;21.712;2023-02-10T18:45:02;102568.77;;;0.36;68.07
63927;BME280;50103;47.960;21.712;2023-02-10T18:47:28;102565.12;;;0.32;68.55
63927;BME280;50103;47.960;21.712;2023-02-10T18:49:53;102565.81;;;0.25;68.83
63927;BME280;50103;47.960;21.712;2023-02-10T18:52:19;102571.19;;;0.21;69.32
63927;BME280;50103;47.960;21.712;2023-02-10T18:54:45;102567.88;;;0.17;69.75
63927;BME280;50103;47.960;21.712;2023-02-10T18:57:11;102565.96;;;0.13;70.29
63927;BME280;50103;47.960;21.712;2023-02-10T18:59:37;102565.77;;;0.07;70.57
63927;BME280;50103;47.960;21.712;2023-02-10T19:02:02;102567.15;;;0.02;70.97
63927;BME280;50103;47.960;21.712;2023-02-10T19:04:29;102567.50;;;-0.03;71.25
63927;BME280;50103;47.960;21.712;2023-02-10T19:06:55;102567.83;;;-0.06;71.42
63927;BME280;50103;47.960;21.712;2023-02-10T19:09:20;102569.02;;;-0.09;71.77
63927;BME280;50103;47.960;21.712;2023-02-10T19:11:46;102569.52;;;-0.14;71.95
63927;BME280;50103;47.960;21.712;2023-02-10T19:14:12;102571.10;;;-0.17;72.30
63927;BME280;50103;47.960;21.712;2023-02-10T19:16:38;102569.69;;;-0.22;72.49
63927;BME280;50103;47.960;21.712;2023-02-10T19:19:04;102571.92;;;-0.26;72.87
63927;BME280;50103;47.960;21.712;2023-02-10T19:21:32;102571.04;;;-0.30;73.22
63927;BME280;50103;47.960;21.712;2023-02-10T19:23:58;102571.90;;;-0.35;73.56
63927;BME280;50103;47.960;21.712;2023-02-10T19:26:27;102572.06;;;-0.38;73.70
63927;BME280;50103;47.960;21.712;2023-02-10T19:28:52;102572.91;;;-0.41;73.86
63927;BME280;50103;47.960;21.712;2023-02-10T19:31:18;102574.80;;;-0.45;74.09
63927;BME280;50103;47.960;21.712;2023-02-10T19:33:45;102569.23;;;-0.48;74.06
63927;BME280;50103;47.960;21.712;2023-02-10T19:36:14;102569.06;;;-0.50;74.17
63927;BME280;50103;47.960;21.712;2023-02-10T19:38:42;102571.31;;;-0.52;74.42
63927;BME280;50103;47.960;21.712;2023-02-10T19:41:11;102568.67;;;-0.54;74.70
63927;BME280;50103;47.960;21.712;2023-02-10T19:43:38;102571.98;;;-0.57;74.85
63927;BME280;50103;47.960;21.712;2023-02-10T19:46:04;102570.38;;;-0.60;74.83
63927;BME280;50103;47.960;21.712;2023-02-10T19:48:32;102573.14;;;-0.62;75.05
63927;BME280;50103;47.960;21.712;2023-02-10T19:51:09;102572.97;;;-0.66;75.39
63927;BME280;50103;47.960;21.712;2023-02-10T19:53:37;102572.26;;;-0.69;75.42
63927;BME280;50103;47.960;21.712;2023-02-10T19:56:05;102571.71;;;-0.73;75.40
63927;BME280;50103;47.960;21.712;2023-02-10T19:58:31;102573.42;;;-0.75;75.68
63927;BME280;50103;47.960;21.712;2023-02-10T20:01:00;102575.48;;;-0.78;75.83
